createdAt,value
2024-01-18T00:02:31.192Z,94401.78
2024-01-18T00:05:16.694Z,94400.50
2024-01-18T00:08:02.392Z,94402.47
2024-01-18T00:10:48.188Z,94406.56
2024-01-18T00:13:33.856Z,94399.94
2024-01-18T00:16:19.432Z,94393.09
2024-01-18T00:19:04.939Z,94392.16
2024-01-18T00:21:50.365Z,94410.69
2024-01-18T00:24:35.955Z,94406.19
2024-01-18T00:27:21.508Z,94394.66
2024-01-18T00:30:07.612Z,94394.66
2024-01-18T00:32:53.467Z,94391.00
2024-01-18T00:35:38.865Z,94411.97
2024-01-18T00:38:24.431Z,94409.63
2024-01-18T00:41:10.084Z,94416.78
2024-01-18T00:43:55.622Z,94429.53
2024-01-18T00:46:41.079Z,94420.22
2024-01-18T00:49:26.791Z,94418.13
2024-01-18T00:52:12.767Z,94413.16
2024-01-18T00:54:58.702Z,94407.38
2024-01-18T00:57:44.261Z,94427.75
2024-01-18T01:00:29.950Z,94429.88
2024-01-18T01:03:15.652Z,94428.91
2024-01-18T01:06:01.148Z,94432.44
2024-01-18T01:08:47.133Z,94437.72
2024-01-18T01:11:32.539Z,94446.72
2024-01-18T01:14:17.979Z,94430.09
2024-01-18T01:17:03.767Z,94452.00
2024-01-18T01:19:49.506Z,94457.03
2024-01-18T01:22:35.240Z,94441.44
2024-01-18T01:25:21.038Z,94459.94
2024-01-18T01:28:06.822Z,94463.38
2024-01-18T01:30:52.639Z,94465.53
2024-01-18T01:33:38.219Z,94455.81
2024-01-18T01:36:24.152Z,94460.13
2024-01-18T01:39:09.524Z,94471.78
2024-01-18T01:41:55.149Z,94459.06
2024-01-18T01:44:40.796Z,94463.84
2024-01-18T01:47:26.363Z,94457.78
2024-01-18T01:50:12.165Z,94457.00
2024-01-18T01:52:57.655Z,94458.06
2024-01-18T01:55:44.567Z,94466.28
2024-01-18T01:58:30.151Z,94471.56
2024-01-18T02:01:15.958Z,94482.16
2024-01-18T02:04:01.639Z,94475.03
2024-01-18T02:06:51.680Z,94474.00
2024-01-18T02:09:37.997Z,94481.47
2024-01-18T02:12:26.392Z,94477.81
2024-01-18T02:15:12.574Z,94468.81
2024-01-18T02:17:58.403Z,94470.97
2024-01-18T02:20:44.712Z,94472.22
2024-01-18T02:23:33.743Z,94466.94
2024-01-18T02:26:19.597Z,94487.63
2024-01-18T02:29:05.081Z,94481.53
2024-01-18T02:31:50.693Z,94469.41
2024-01-18T02:34:41.283Z,94487.41
2024-01-18T02:37:26.709Z,94486.69
2024-01-18T02:40:12.694Z,94480.91
2024-01-18T02:42:58.512Z,94475.69
2024-01-18T02:45:44.146Z,94482.69
2024-01-18T02:48:29.975Z,94470.66
2024-01-18T02:51:15.408Z,94486.28
2024-01-18T02:54:00.912Z,94485.47
2024-01-18T02:56:46.314Z,94476.78
2024-01-18T02:59:31.938Z,94487.06
2024-01-18T03:02:17.378Z,94491.28
2024-01-18T03:05:02.994Z,94500.78
2024-01-18T03:07:48.899Z,94502.34
2024-01-18T03:10:34.585Z,94492.03
2024-01-18T03:13:20.301Z,94500.78
2024-01-18T03:16:05.923Z,94500.25
2024-01-18T03:18:51.490Z,94503.72
2024-01-18T03:21:37.132Z,94502.13
2024-01-18T03:24:22.602Z,94504.47
2024-01-18T03:27:07.916Z,94509.25
2024-01-18T03:29:53.354Z,94505.34
2024-01-18T03:32:38.878Z,94506.13
2024-01-18T03:35:25.515Z,94513.25
2024-01-18T03:38:11.496Z,94506.91
2024-01-18T03:40:56.971Z,94504.56
2024-01-18T03:43:42.628Z,94496.63
2024-01-18T03:46:28.016Z,94508.28
2024-01-18T03:49:13.779Z,94491.66
2024-01-18T03:51:59.346Z,94494.84
2024-01-18T03:54:45.631Z,94495.41
2024-01-18T03:57:31.398Z,94502.56
2024-01-18T04:00:16.959Z,94485.94
2024-01-18T04:03:02.741Z,94495.41
2024-01-18T04:05:48.400Z,94512.56
2024-01-18T04:08:34.291Z,94508.34
2024-01-18T04:11:20.377Z,94503.84
2024-01-18T04:14:06.011Z,94517.84
2024-01-18T04:16:51.538Z,94515.22
2024-01-18T04:19:37.318Z,94515.47
2024-01-18T04:22:24.295Z,94511.25
2024-01-18T04:25:09.969Z,94498.56
2024-01-18T04:27:55.565Z,94509.91
2024-01-18T04:30:41.490Z,94513.41
2024-01-18T04:33:27.353Z,94520.50
2024-01-18T04:36:12.898Z,94520.97
2024-01-18T04:38:58.539Z,94531.53
2024-01-18T04:41:44.124Z,94537.63
2024-01-18T04:44:29.683Z,94517.56
2024-01-18T04:47:15.523Z,94524.19
2024-01-18T04:50:01.253Z,94519.47
2024-01-18T04:52:46.694Z,94535.31
2024-01-18T04:55:32.402Z,94535.31
2024-01-18T04:58:18.293Z,94533.47
2024-01-18T05:01:04.276Z,94531.91
2024-01-18T05:03:49.713Z,94533.75
2024-01-18T05:06:35.717Z,94548.03
2024-01-18T05:09:21.203Z,94542.75
2024-01-18T05:12:09.889Z,94536.38
2024-01-18T05:14:56.780Z,94532.97
2024-01-18T05:17:45.252Z,94534.84
2024-01-18T05:20:31.107Z,94550.16
2024-01-18T05:23:16.722Z,94553.59
2024-01-18T05:26:02.260Z,94555.97
2024-01-18T05:28:47.827Z,94558.59
2024-01-18T05:31:33.535Z,94560.16
2024-01-18T05:34:19.189Z,94575.50
2024-01-18T05:37:05.466Z,94566.03
2024-01-18T05:39:51.699Z,94563.94
2024-01-18T05:42:37.471Z,94575.78
2024-01-18T05:45:22.979Z,94573.44
2024-01-18T05:48:08.540Z,94579.28
2024-01-18T05:50:53.936Z,94576.44
2024-01-18T05:53:40.166Z,94573.56
2024-01-18T05:56:25.921Z,94576.28
2024-01-18T05:59:11.427Z,94582.66
2024-01-18T06:01:57.364Z,94573.75
2024-01-18T06:04:42.963Z,94568.53
2024-01-18T06:07:28.976Z,94577.78
2024-01-18T06:10:14.870Z,94561.75
2024-01-18T06:13:00.921Z,94580.75
2024-01-18T06:15:46.894Z,94583.41
2024-01-18T06:18:32.609Z,94590.25
2024-01-18T06:21:18.242Z,94588.69
2024-01-18T06:24:04.026Z,94589.75
2024-01-18T06:26:49.967Z,94585.81
2024-01-18T06:29:36.518Z,94585.59
2024-01-18T06:32:22.343Z,94595.66
2024-01-18T06:35:07.873Z,94597.78
2024-01-18T06:37:53.646Z,94601.00
2024-01-18T06:40:41.918Z,94598.91
2024-01-18T06:43:29.873Z,94609.78
2024-01-18T06:46:18.817Z,94601.91
2024-01-18T06:49:04.947Z,94607.47
2024-01-18T06:51:50.674Z,94599.03
2024-01-18T06:54:36.419Z,94599.59
2024-01-18T06:57:22.018Z,94603.84
2024-01-18T07:00:08.333Z,94595.94
2024-01-18T07:02:54.781Z,94595.94
2024-01-18T07:05:40.494Z,94597.50
2024-01-18T07:08:25.973Z,94597.50
2024-01-18T07:11:11.889Z,94607.28
2024-01-18T07:13:58.024Z,94603.84
2024-01-18T07:16:43.519Z,94598.31
2024-01-18T07:19:29.242Z,94597.50
2024-01-18T07:22:14.779Z,94598.31
2024-01-18T07:25:00.300Z,94595.38
2024-01-18T07:27:45.806Z,94599.59
2024-01-18T07:30:31.315Z,94605.66
2024-01-18T07:33:18.073Z,94604.88
2024-01-18T07:36:04.299Z,94614.84
2024-01-18T07:38:50.234Z,94611.69
2024-01-18T07:41:36.004Z,94614.31
2024-01-18T07:44:22.060Z,94611.41
2024-01-18T07:47:11.105Z,94611.09
2024-01-18T07:49:56.633Z,94620.06
2024-01-18T07:52:42.468Z,94620.53
2024-01-18T07:55:27.993Z,94619.47
2024-01-18T07:58:14.917Z,94620.00
2024-01-18T08:01:01.382Z,94612.84
2024-01-18T08:03:47.274Z,94604.69
2024-01-18T08:06:33.627Z,94606.25
2024-01-18T08:09:19.789Z,94605.47
2024-01-18T08:12:06.358Z,94612.31
2024-01-18T08:14:51.848Z,94615.25
2024-01-18T08:17:37.420Z,94598.84
2024-01-18T08:20:22.744Z,94599.91
2024-01-18T08:23:08.391Z,94603.63
2024-01-18T08:25:53.732Z,94606.25
2024-01-18T08:28:39.288Z,94609.38
2024-01-18T08:31:24.885Z,94603.81
2024-01-18T08:34:10.347Z,94617.81
2024-01-18T08:36:55.813Z,94614.38
2024-01-18T08:39:41.267Z,94613.31
2024-01-18T08:42:27.194Z,94615.69
2024-01-18T08:45:13.441Z,94610.41
2024-01-18T08:47:59.200Z,94614.34
2024-01-18T08:50:45.163Z,94617.47
2024-01-18T08:53:32.147Z,94626.19
2024-01-18T08:56:22.554Z,94612.72
2024-01-18T08:59:12.723Z,94621.16
2024-01-18T09:02:04.225Z,94612.66
2024-01-18T09:04:55.432Z,94603.63
2024-01-18T09:07:41.477Z,94596.94
2024-01-18T09:10:26.865Z,94610.09
2024-01-18T09:13:12.487Z,94619.00
2024-01-18T09:15:58.396Z,94615.81
2024-01-18T09:18:56.331Z,94616.03
2024-01-18T09:21:49.783Z,94626.81
2024-01-18T09:24:35.343Z,94614.31
2024-01-18T09:27:21.212Z,94625.13
2024-01-18T09:30:10.068Z,94611.72
2024-01-18T09:32:56.056Z,94619.44
2024-01-18T09:35:42.582Z,94623.88
2024-01-18T09:38:30.827Z,94627.69
2024-01-18T09:41:20.837Z,94627.28
2024-01-18T09:44:08.308Z,94626.28
2024-01-18T09:46:58.336Z,94618.47
2024-01-18T09:49:45.848Z,94624.31
2024-01-18T09:52:31.269Z,94626.16
2024-01-18T09:55:16.827Z,94615.41
2024-01-18T09:58:03.815Z,94620.66
2024-01-18T10:00:59.306Z,94625.91
2024-01-18T10:03:45.233Z,94628.25
2024-01-18T10:06:31.376Z,94635.88
2024-01-18T10:09:17.358Z,94636.38
2024-01-18T10:12:03.029Z,94633.47
2024-01-18T10:14:48.859Z,94632.41
2024-01-18T10:17:34.459Z,94627.94
2024-01-18T10:20:20.233Z,94636.84
2024-01-18T10:23:05.947Z,94637.34
2024-01-18T10:25:52.239Z,94636.28
2024-01-18T10:28:38.047Z,94626.28
2024-01-18T10:31:23.561Z,94626.53
2024-01-18T10:34:09.622Z,94630.19
2024-01-18T10:36:56.087Z,94630.69
2024-01-18T10:39:43.457Z,94622.78
2024-01-18T10:42:29.407Z,94635.38
2024-01-18T10:45:15.041Z,94621.97
2024-01-18T10:48:01.411Z,94631.94
2024-01-18T10:50:48.028Z,94633.50
2024-01-18T10:53:35.113Z,94625.59
2024-01-18T10:56:24.233Z,94631.38
2024-01-18T10:59:10.741Z,94637.59
2024-01-18T11:02:00.478Z,94653.31
2024-01-18T11:04:49.189Z,94646.47
2024-01-18T11:07:40.573Z,94648.22
2024-01-18T11:10:26.476Z,94651.66
2024-01-18T11:13:13.209Z,94658.72
2024-01-18T11:15:58.803Z,94674.16
2024-01-18T11:18:51.061Z,94677.00
2024-01-18T11:21:41.641Z,94683.50
2024-01-18T11:24:27.482Z,94676.06
2024-01-18T11:27:23.881Z,94690.56
2024-01-18T11:30:14.667Z,94684.63
2024-01-18T11:33:00.815Z,94680.06
2024-01-18T11:35:46.536Z,94683.38
2024-01-18T11:38:34.702Z,94681.75
2024-01-18T11:41:24.212Z,94689.31
2024-01-18T11:44:12.071Z,94682.72
2024-01-18T11:46:58.809Z,94687.44
2024-01-18T11:49:44.656Z,94690.06
2024-01-18T11:52:33.463Z,94685.28
2024-01-18T11:55:19.655Z,94694.19
2024-01-18T11:58:05.507Z,94695.97
2024-01-18T12:00:51.767Z,94701.91
2024-01-18T12:03:37.578Z,94698.69
2024-01-18T12:06:28.185Z,94701.72
2024-01-18T12:09:14.022Z,94709.78
2024-01-18T12:12:00.763Z,94708.13
2024-01-18T12:14:48.730Z,94706.22
2024-01-18T12:17:34.307Z,94700.69
2024-01-18T12:20:20.979Z,94694.59
2024-01-18T12:23:14.604Z,94699.75
2024-01-18T12:26:00.628Z,94702.63
2024-01-18T12:28:47.719Z,94705.16
2024-01-18T12:31:35.317Z,94712.69
2024-01-18T12:34:21.683Z,94696.94
2024-01-18T12:37:07.132Z,94707.88
2024-01-18T12:39:53.746Z,94700.28
2024-01-18T12:42:39.873Z,94704.16
2024-01-18T12:45:26.269Z,94716.09
2024-01-18T12:48:12.630Z,94720.31
2024-01-18T12:50:58.205Z,94709.53
2024-01-18T12:53:44.342Z,94709.22
2024-01-18T12:56:30.680Z,94710.50
2024-01-18T12:59:16.094Z,94710.50
2024-01-18T13:02:01.714Z,94719.59
2024-01-18T13:04:50.232Z,94715.66
2024-01-18T13:07:36.315Z,94712.47
2024-01-18T13:10:23.714Z,94725.22
2024-01-18T13:13:12.596Z,94726.72
2024-01-18T13:15:59.473Z,94730.28
2024-01-18T13:18:45.699Z,94737.81
2024-01-18T13:21:31.396Z,94759.97
2024-01-18T13:24:17.023Z,94768.50
2024-01-18T13:27:06.256Z,94794.28
2024-01-18T13:29:52.053Z,94806.25
2024-01-18T13:32:37.640Z,94832.47
2024-01-18T13:35:23.516Z,94839.78
2024-01-18T13:38:10.342Z,94841.66
2024-01-18T13:40:56.893Z,94846.44
2024-01-18T13:43:44.223Z,94853.59
2024-01-18T13:46:31.395Z,94849.06
2024-01-18T13:49:17.073Z,94862.78
2024-01-18T13:52:03.832Z,94880.34
2024-01-18T13:54:49.896Z,94881.63
2024-01-18T13:57:35.684Z,94883.09
2024-01-18T14:00:21.547Z,94901.78
2024-01-18T14:03:10.271Z,94907.47
2024-01-18T14:05:57.052Z,94915.97
2024-01-18T14:08:47.180Z,94933.31
2024-01-18T14:11:35.047Z,94944.63
2024-01-18T14:14:20.988Z,94958.91
2024-01-18T14:17:08.278Z,94968.75
2024-01-18T14:19:56.917Z,94986.91
2024-01-18T14:22:44.551Z,94990.31
2024-01-18T14:25:29.871Z,95010.16
2024-01-18T14:28:15.485Z,95029.19
2024-01-18T14:31:02.452Z,95027.81
2024-01-18T14:33:49.032Z,95040.84
2024-01-18T14:36:34.962Z,95046.31
2024-01-18T14:39:20.757Z,95066.34
2024-01-18T14:42:06.947Z,95068.94
2024-01-18T14:44:52.577Z,95081.97
2024-01-18T14:47:38.189Z,95091.63
2024-01-18T14:50:23.628Z,95096.03
2024-01-18T14:53:10.265Z,95096.50
2024-01-18T14:55:56.733Z,95111.19
2024-01-18T14:58:44.578Z,95117.50
2024-01-18T15:01:33.210Z,95125.59
2024-01-18T15:04:19.051Z,95130.66
2024-01-18T15:07:05.148Z,95147.75
2024-01-18T15:09:51.006Z,95159.38
2024-01-18T15:12:37.112Z,95163.81
2024-01-18T15:15:22.579Z,95174.22
2024-01-18T15:18:09.718Z,95184.28
2024-01-18T15:20:55.508Z,95190.94
2024-01-18T15:23:41.662Z,95201.56
2024-01-18T15:26:27.162Z,95218.00
2024-01-18T15:29:13.032Z,95232.25
2024-01-18T15:31:58.851Z,95248.28
2024-01-18T15:34:44.474Z,95248.28
2024-01-18T15:37:30.426Z,95254.50
2024-01-18T15:40:17.497Z,95269.34
2024-01-18T15:43:03.196Z,95270.59
2024-01-18T15:45:48.972Z,95280.00
2024-01-18T15:48:37.108Z,95299.22
2024-01-18T15:51:24.325Z,95312.25
2024-01-18T15:54:09.767Z,95319.47
2024-01-18T15:56:55.100Z,95332.94
2024-01-18T15:59:40.738Z,95348.81
2024-01-18T16:02:26.800Z,95356.44
2024-01-18T16:05:12.552Z,95361.28
2024-01-18T16:07:58.514Z,95368.47
2024-01-18T16:10:44.087Z,95369.69
2024-01-18T16:13:31.066Z,95380.94
2024-01-18T16:16:16.897Z,95393.97
2024-01-18T16:19:02.413Z,95400.16
2024-01-18T16:21:48.749Z,95416.38
2024-01-18T16:24:34.655Z,95425.59
2024-01-18T16:27:20.432Z,95415.81
2024-01-18T16:30:13.117Z,95408.41
2024-01-18T16:33:05.546Z,95412.44
2024-01-18T16:35:51.446Z,95425.84
2024-01-18T16:38:36.927Z,95438.69
2024-01-18T16:41:22.646Z,95470.13
2024-01-18T16:44:08.953Z,95488.53
2024-01-18T16:46:54.565Z,95480.94
2024-01-18T16:49:40.473Z,95479.31
2024-01-18T16:52:26.439Z,95489.16
2024-01-18T16:55:12.286Z,95498.53
2024-01-18T16:57:58.002Z,95497.97
2024-01-18T17:00:43.542Z,95516.97
2024-01-18T17:03:29.169Z,95542.19
2024-01-18T17:06:16.712Z,95557.19
2024-01-18T17:09:02.834Z,95549.59
2024-01-18T17:11:48.775Z,95540.41
2024-01-18T17:14:34.449Z,95546.97
2024-01-18T17:17:20.307Z,95569.00
2024-01-18T17:20:06.083Z,95579.63
2024-01-18T17:22:51.813Z,95586.81
2024-01-18T17:25:37.518Z,95607.63
2024-01-18T17:28:23.028Z,95620.44
2024-01-18T17:31:09.419Z,95616.41
2024-01-18T17:33:55.179Z,95625.03
2024-01-18T17:36:40.982Z,95641.44
2024-01-18T17:39:27.685Z,95660.47
2024-01-18T17:42:13.514Z,95666.66
2024-01-18T17:44:59.197Z,95663.25
2024-01-18T17:47:45.952Z,95668.44
2024-01-18T17:50:34.684Z,95684.06
2024-01-18T17:53:20.066Z,95697.06
2024-01-18T17:56:05.719Z,95698.09
2024-01-18T17:58:51.421Z,95704.88
2024-01-18T18:01:37.150Z,95709.09
2024-01-18T18:04:22.811Z,95715.28
2024-01-18T18:07:09.790Z,95735.91
2024-01-18T18:09:56.264Z,95741.13
2024-01-18T18:12:42.879Z,95762.09
2024-01-18T18:15:31.658Z,95768.13
2024-01-18T18:18:20.157Z,95768.13
2024-01-18T18:21:05.849Z,95782.91
2024-01-18T18:23:52.039Z,95788.75
2024-01-18T18:26:37.669Z,95797.38
2024-01-18T18:29:23.218Z,95796.34
2024-01-18T18:32:08.754Z,95805.97
2024-01-18T18:34:54.199Z,95816.56
2024-01-18T18:37:39.861Z,95832.19
2024-01-18T18:40:26.756Z,95845.97
2024-01-18T18:43:12.394Z,95850.56
2024-01-18T18:45:58.521Z,95859.38
2024-01-18T18:48:43.981Z,95870.97
2024-01-18T18:51:29.485Z,95878.97
2024-01-18T18:54:14.929Z,95898.97
2024-01-18T18:57:00.529Z,95908.56
2024-01-18T18:59:49.752Z,95911.16
2024-01-18T19:02:38.552Z,95917.38
2024-01-18T19:05:24.253Z,95937.56
2024-01-18T19:08:11.008Z,95943.75
2024-01-18T19:10:56.545Z,95947.34
2024-01-18T19:13:42.515Z,95959.56
2024-01-18T19:16:28.751Z,95962.97
2024-01-18T19:19:14.528Z,95974.19
2024-01-18T19:22:01.559Z,95985.94
2024-01-18T19:24:47.151Z,95988.38
2024-01-18T19:27:32.766Z,95996.97
2024-01-18T19:30:18.236Z,96013.56
2024-01-18T19:33:04.349Z,96019.59
2024-01-18T19:35:50.155Z,96028.19
2024-01-18T19:38:35.844Z,96026.56
2024-01-18T19:41:22.872Z,96017.00
2024-01-18T19:44:08.793Z,96030.59
2024-01-18T19:46:54.347Z,96038.59
2024-01-18T19:49:41.480Z,96046.59
2024-01-18T19:52:28.527Z,96057.00
2024-01-18T19:55:14.339Z,96063.81
2024-01-18T19:58:00.042Z,96074.22
2024-01-18T20:00:45.951Z,96084.63
2024-01-18T20:03:31.371Z,96093.03
2024-01-18T20:06:16.945Z,96102.44
2024-01-18T20:09:03.963Z,96109.44
2024-01-18T20:11:52.049Z,96110.25
2024-01-18T20:14:38.789Z,96119.66
2024-01-18T20:17:24.718Z,96123.25
2024-01-18T20:20:10.788Z,96127.47
2024-01-18T20:22:56.338Z,96137.88
2024-01-18T20:25:41.848Z,96143.06
2024-01-18T20:28:28.588Z,96151.88
2024-01-18T20:31:15.534Z,96152.66
2024-01-18T20:34:01.661Z,96156.09
2024-01-18T20:36:46.925Z,96165.50
2024-01-18T20:39:35.046Z,96171.50
2024-01-18T20:42:21.106Z,96177.53
2024-01-18T20:45:07.432Z,96182.72
2024-01-18T20:47:53.138Z,96188.91
2024-01-18T20:50:38.742Z,96191.53
2024-01-18T20:53:25.244Z,96202.91
2024-01-18T20:56:10.992Z,96206.50
2024-01-18T20:58:57.179Z,96220.47
2024-01-18T21:01:43.697Z,96223.28
2024-01-18T21:04:30.427Z,96230.28
2024-01-18T21:07:17.044Z,96241.69
2024-01-18T21:10:02.785Z,96246.25
2024-01-18T21:12:49.001Z,96244.81
2024-01-18T21:15:34.533Z,96257.38
2024-01-18T21:18:20.116Z,96266.34
2024-01-18T21:21:06.384Z,96274.69
2024-01-18T21:23:52.598Z,96274.03
2024-01-18T21:26:37.962Z,96289.84
2024-01-18T21:29:23.465Z,96297.19
2024-01-18T21:32:09.115Z,96305.19
2024-01-18T21:34:54.678Z,96311.16
2024-01-18T21:37:41.038Z,96314.78
2024-01-18T21:40:27.981Z,96303.75
2024-01-18T21:43:13.644Z,96306.34
2024-01-18T21:45:59.517Z,96322.91
2024-01-18T21:48:45.969Z,96317.72
2024-01-18T21:51:32.178Z,96332.34
2024-01-18T21:54:17.915Z,96342.75
2024-01-18T21:57:03.826Z,96352.31
2024-01-18T21:59:50.199Z,96355.75
2024-01-18T22:02:38.452Z,96358.34
2024-01-18T22:05:27.397Z,96368.75
2024-01-18T22:08:13.283Z,96368.75
2024-01-18T22:10:59.218Z,96372.31
2024-01-18T22:13:44.973Z,96386.31
2024-01-18T22:16:30.863Z,96392.47
2024-01-18T22:19:29.322Z,96395.28
2024-01-18T22:22:23.107Z,96410.06
2024-01-18T22:25:09.499Z,96415.28
2024-01-18T22:27:55.191Z,96421.44
2024-01-18T22:30:40.729Z,96430.41
2024-01-18T22:33:26.172Z,96423.78
2024-01-18T22:36:11.912Z,96432.72
2024-01-18T22:38:58.555Z,96445.88
2024-01-18T22:41:44.278Z,96451.44
2024-01-18T22:44:30.033Z,96447.22
2024-01-18T22:47:15.952Z,96454.75
2024-01-18T22:50:01.928Z,96457.69
2024-01-18T22:52:47.400Z,96459.63
2024-01-18T22:55:34.148Z,96467.13
2024-01-18T22:58:19.952Z,96471.72
2024-01-18T23:01:07.154Z,96466.84
2024-01-18T23:03:52.950Z,96466.38
2024-01-18T23:06:38.838Z,96464.94
2024-01-18T23:09:24.385Z,96466.09
2024-01-18T23:12:09.977Z,96474.22
2024-01-18T23:14:55.376Z,96476.34
2024-01-18T23:17:41.049Z,96475.72
2024-01-18T23:20:26.595Z,96476.06
2024-01-18T23:23:12.083Z,96481.59
2024-01-18T23:26:00.295Z,96483.75
2024-01-18T23:28:46.296Z,96493.81
2024-01-18T23:31:32.004Z,96493.03
2024-01-18T23:34:17.555Z,96501.50
2024-01-18T23:37:03.183Z,96499.41
2024-01-18T23:39:48.759Z,96504.16
2024-01-18T23:42:34.393Z,96511.59
2024-01-18T23:45:19.886Z,96518.13
2024-01-18T23:48:06.273Z,96515.84
2024-01-18T23:50:52.204Z,96512.75
2024-01-18T23:53:38.117Z,96512.31
2024-01-18T23:56:23.821Z,96511.66
2024-01-18T23:59:09.269Z,96510.34
